Time;durP1;ratioP1;P1;durP2;ratioP2;P2;SDS_P1;SDS_P2;PMS_P1;PMS_P2;Temp;Humidity;BMP_temperature;BMP_pressure;BME280_temperature;BME280_humidity;BME280_pressure;Samples;Min_cycle;Max_cycle;Signal;HPM_P1;HPM_P2
2022/03/08 00:00:37;;;;;;;0.57;0.40;;;;;;;5.65;100.00;94904.41;5132691;28;20477;-56
2022/03/08 00:03:05;;;;;;;0.30;0.20;;;;;;;5.72;100.00;94904.97;5132595;28;20427;-57
2022/03/08 00:05:37;;;;;;;0.30;0.20;;;;;;;6.22;100.00;94899.38;5132977;28;20495;-57
2022/03/08 00:08:06;;;;;;;1.03;1.03;;;;;;;6.35;100.00;94898.97;5132324;28;20458;-57
2022/03/08 00:10:36;;;;;;;0.30;0.20;;;;;;;6.42;100.00;94896.13;5132512;28;20494;-57
2022/03/08 00:13:04;;;;;;;0.30;0.20;;;;;;;6.27;100.00;94888.91;5132427;28;20483;-57
2022/03/08 00:15:32;;;;;;;0.30;0.30;;;;;;;6.14;100.00;94876.19;5132710;28;20450;-57
2022/03/08 00:18:03;;;;;;;0.30;0.20;;;;;;;6.23;100.00;94887.03;5131701;27;20438;-57
2022/03/08 00:20:31;;;;;;;0.30;0.20;;;;;;;6.15;100.00;94888.28;5136032;27;20419;-57
2022/03/08 00:23:00;;;;;;;0.30;0.20;;;;;;;5.94;100.00;94891.00;5136622;27;20838;-57
2022/03/08 00:25:29;;;;;;;1.23;1.23;;;;;;;5.72;100.00;94898.94;5136390;27;20490;-57
2022/03/08 00:27:57;;;;;;;0.30;0.20;;;;;;;5.82;100.00;94891.13;5135838;27;20462;-57
2022/03/08 00:30:27;;;;;;;0.30;0.23;;;;;;;5.30;100.00;94791.06;5136288;27;20502;-57
2022/03/08 00:32:56;;;;;;;0.60;0.60;;;;;;;5.62;100.00;94889.13;5136236;27;20454;-58
2022/03/08 00:35:27;;;;;;;0.93;0.57;;;;;;;5.39;100.00;94886.00;5135989;27;20926;-57
2022/03/08 00:37:59;;;;;;;0.30;0.30;;;;;;;5.61;100.00;94890.16;5135466;27;20450;-57
2022/03/08 00:40:28;;;;;;;0.60;0.50;;;;;;;5.71;100.00;94889.47;5136516;27;20418;-57
2022/03/08 00:42:56;;;;;;;0.40;0.40;;;;;;;5.73;100.00;94884.75;5136402;27;20953;-57
2022/03/08 00:45:24;;;;;;;0.30;0.20;;;;;;;6.06;100.00;94889.81;5136115;27;20418;-57
2022/03/08 00:47:53;;;;;;;0.60;0.60;;;;;;;6.29;100.00;94886.03;5136034;27;20434;-57
2022/03/08 00:50:24;;;;;;;0.30;0.20;;;;;;;6.26;100.00;94881.25;5135966;27;20501;-57
2022/03/08 00:52:55;;;;;;;0.30;0.20;;;;;;;5.49;100.00;94844.81;5135838;27;20473;-57
2022/03/08 00:55:26;;;;;;;0.30;0.20;;;;;;;6.10;100.00;94890.88;5136195;27;20419;-57
2022/03/08 00:57:55;;;;;;;0.30;0.20;;;;;;;6.07;100.00;94888.75;5135922;27;20926;-57
2022/03/08 01:00:25;;;;;;;0.67;0.40;;;;;;;5.78;100.00;94890.84;5135781;27;20473;-57
2022/03/08 01:02:54;;;;;;;2.97;1.03;;;;;;;5.54;100.00;94799.41;5135727;27;20465;-57
2022/03/08 01:05:23;;;;;;;0.40;0.37;;;;;;;6.30;100.00;94891.03;5135977;27;20422;-57
2022/03/08 01:07:51;;;;;;;0.30;0.30;;;;;;;5.84;100.00;94893.53;5135668;27;20450;-57
2022/03/08 01:10:23;;;;;;;0.40;0.30;;;;;;;5.47;100.00;94896.84;5134840;27;20501;-57
2022/03/08 01:12:53;;;;;;;0.30;0.20;;;;;;;5.32;100.00;94903.78;5135626;27;20454;-58
2022/03/08 01:15:23;;;;;;;0.93;0.93;;;;;;;5.90;100.00;94901.22;5135417;27;20521;-57
2022/03/08 01:17:52;;;;;;;2.20;1.93;;;;;;;6.01;100.00;94902.91;5134910;27;20513;-57
2022/03/08 01:20:21;;;;;;;0.30;0.20;;;;;;;5.86;100.00;94896.72;5135235;27;20936;-57
2022/03/08 01:22:50;;;;;;;0.30;0.20;;;;;;;5.76;100.00;94900.03;5135301;27;20973;-57
2022/03/08 01:25:21;;;;;;;0.40;0.40;;;;;;;5.83;100.00;94894.56;5134708;27;20847;-57
2022/03/08 01:27:50;;;;;;;0.50;0.50;;;;;;;4.79;100.00;94692.59;5134722;27;20415;-57
2022/03/08 01:30:22;;;;;;;0.30;0.20;;;;;;;6.16;100.00;94900.41;5133971;27;20549;-57
2022/03/08 01:32:51;;;;;;;0.30;0.20;;;;;;;6.38;100.00;94895.81;5135220;27;20491;-58
2022/03/08 01:35:19;;;;;;;1.40;1.23;;;;;;;5.55;100.00;94896.41;5135072;27;20423;-57
2022/03/08 01:37:47;;;;;;;0.30;0.20;;;;;;;5.53;100.00;94905.59;5134838;27;20454;-57
2022/03/08 01:40:16;;;;;;;0.60;0.60;;;;;;;5.83;100.00;94903.25;5134746;27;20418;-57
2022/03/08 01:42:48;;;;;;;0.30;0.20;;;;;;;5.96;100.00;94891.56;5135212;27;20450;-57
2022/03/08 01:45:20;;;;;;;0.30;0.20;;;;;;;5.75;100.00;94901.88;5134831;27;20506;-57
2022/03/08 01:47:49;;;;;;;0.63;0.50;;;;;;;5.80;100.00;94906.38;5134882;27;20514;-57
2022/03/08 01:50:18;;;;;;;0.97;0.97;;;;;;;5.46;100.00;94916.31;5135180;27;20505;-57
2022/03/08 01:52:50;;;;;;;0.50;0.50;;;;;;;5.34;100.00;94912.22;5135048;27;20418;-57
2022/03/08 01:55:18;;;;;;;0.33;0.30;;;;;;;4.63;100.00;94839.69;5134583;27;20419;-57
2022/03/08 01:57:50;;;;;;;0.30;0.23;;;;;;;4.87;100.00;94920.59;5134686;27;20426;-57
2022/03/08 02:00:22;;;;;;;0.43;0.40;;;;;;;4.69;100.00;94912.19;5134615;27;20445;-57
2022/03/08 02:02:51;;;;;;;0.30;0.30;;;;;;;4.90;100.00;94909.59;5134514;27;20458;-57
2022/03/08 02:05:23;;;;;;;0.30;0.20;;;;;;;5.18;100.00;94902.56;5134031;27;20496;-57
2022/03/08 02:07:52;;;;;;;5.20;0.77;;;;;;;5.30;100.00;94898.78;5134231;27;20487;-57
2022/03/08 02:10:20;;;;;;;0.30;0.30;;;;;;;5.39;100.00;94894.66;5134709;27;20462;-57
2022/03/08 02:12:50;;;;;;;0.40;0.40;;;;;;;4.97;100.00;94899.72;5133949;27;20865;-57
2022/03/08 02:15:21;;;;;;;1.33;1.33;;;;;;;4.94;100.00;94879.19;5134326;27;20435;-57
2022/03/08 02:17:50;;;;;;;0.30;0.20;;;;;;;5.46;100.00;94892.66;5133424;27;20456;-57
2022/03/08 02:20:19;;;;;;;0.30;0.27;;;;;;;5.48;100.00;94895.03;5134108;27;20453;-57
2022/03/08 02:22:50;;;;;;;0.50;0.50;;;;;;;5.12;100.00;94815.84;5134144;27;20507;-57
2022/03/08 02:25:21;;;;;;;0.30;0.20;;;;;;;5.71;100.00;94894.72;5134193;27;20407;-56
2022/03/08 02:27:51;;;;;;;0.50;0.47;;;;;;;5.69;100.00;94904.69;5133291;27;20434;-56
2022/03/08 02:30:21;;;;;;;0.30;0.20;;;;;;;5.78;100.00;94892.69;5133937;27;20511;-56
2022/03/08 02:32:50;;;;;;;0.30;0.20;;;;;;;3.96;100.00;94689.56;5134252;27;20446;-56
2022/03/08 02:35:21;;;;;;;0.30;0.20;;;;;;;4.99;100.00;94902.06;5134174;27;20423;-57
2022/03/08 02:37:52;;;;;;;0.30;0.20;;;;;;;5.12;100.00;94896.47;5133822;27;20506;-56
2022/03/08 02:40:23;;;;;;;0.30;0.20;;;;;;;4.97;100.00;94894.44;5133811;27;20939;-56
2022/03/08 02:42:52;;;;;;;0.30;0.20;;;;;;;4.75;100.00;94896.28;5132693;27;20418;-57
2022/03/08 02:45:21;;;;;;;0.30;0.20;;;;;;;4.52;100.00;94893.06;5134044;27;20426;-56
2022/03/08 02:47:50;;;;;;;0.40;0.30;;;;;;;4.53;100.00;94895.44;5134083;27;20447;-56
2022/03/08 02:50:19;;;;;;;0.30;0.20;;;;;;;4.83;100.00;94898.47;5133467;27;20492;-56
2022/03/08 02:52:52;;;;;;;0.30;0.23;;;;;;;5.13;100.00;94893.56;5133373;27;20418;-57
2022/03/08 02:55:22;;;;;;;0.80;0.70;;;;;;;4.83;100.00;94900.31;5134006;27;20827;-56
2022/03/08 02:57:51;;;;;;;0.30;0.20;;;;;;;4.77;100.00;94896.03;5133207;27;20466;-56
2022/03/08 03:00:21;;;;;;;1.63;1.63;;;;;;;4.68;100.00;94905.38;5133157;27;20415;-56
2022/03/08 03:02:49;;;;;;;0.90;0.40;;;;;;;4.49;100.00;94902.22;5133076;27;20527;-56
2022/03/08 03:05:18;;;;;;;0.30;0.20;;;;;;;4.57;100.00;94907.06;5132892;27;20918;-56
2022/03/08 03:07:46;;;;;;;0.40;0.40;;;;;;;4.66;100.00;94904.78;5133530;27;20429;-56
2022/03/08 03:10:18;;;;;;;0.30;0.30;;;;;;;4.96;100.00;94905.97;5132481;27;20969;-56
2022/03/08 03:12:47;;;;;;;0.50;0.30;;;;;;;5.34;100.00;94904.34;5133337;27;20518;-57
2022/03/08 03:15:18;;;;;;;0.30;0.20;;;;;;;5.42;100.00;94894.16;5133102;27;20441;-57
2022/03/08 03:17:47;;;;;;;0.30;0.20;;;;;;;5.44;100.00;94899.19;5133486;27;20433;-57
2022/03/08 03:20:18;;;;;;;1.70;0.83;;;;;;;5.22;100.00;94880.00;5132489;27;20950;-57
2022/03/08 03:22:48;;;;;;;0.30;0.30;;;;;;;5.51;100.00;94899.78;5133332;27;20473;-57
2022/03/08 03:25:18;;;;;;;0.30;0.20;;;;;;;5.54;100.00;94896.66;5132721;27;20491;-57
2022/03/08 03:27:47;;;;;;;0.30;0.20;;;;;;;5.31;100.00;94841.78;5133075;27;20430;-57
2022/03/08 03:30:18;;;;;;;0.30;0.20;;;;;;;5.69;100.00;94902.06;5133084;27;20454;-57
2022/03/08 03:32:47;;;;;;;0.30;0.20;;;;;;;5.78;100.00;94901.38;5133090;27;20458;-57
2022/03/08 03:35:16;;;;;;;0.30;0.20;;;;;;;5.77;100.00;94876.09;5132539;27;20946;-57
2022/03/08 03:37:45;;;;;;;0.40;0.40;;;;;;;5.97;100.00;94898.41;5133027;27;20980;-57
2022/03/08 03:40:14;;;;;;;0.30;0.20;;;;;;;5.91;100.00;94888.88;5132922;27;20414;-57
2022/03/08 03:42:44;;;;;;;0.50;0.37;;;;;;;6.04;100.00;94905.06;5133052;28;20808;-57
2022/03/08 03:45:13;;;;;;;0.50;0.50;;;;;;;6.18;100.00;94900.16;5132353;27;20883;-57
2022/03/08 03:47:42;;;;;;;1.03;1.03;;;;;;;6.23;100.00;94903.63;5132505;28;20506;-57
2022/03/08 03:50:11;;;;;;;2.00;0.50;;;;;;;6.20;100.00;94893.59;5132232;28;20419;-57
2022/03/08 03:52:40;;;;;;;0.30;0.30;;;;;;;5.92;100.00;94891.25;5132011;28;20466;-57
2022/03/08 03:55:13;;;;;;;0.30;0.20;;;;;;;5.74;100.00;94896.88;5134822;27;20431;-57
2022/03/08 03:57:41;;;;;;;0.43;0.43;;;;;;;5.12;100.00;94905.13;5136775;27;20901;-57
2022/03/08 04:00:14;;;;;;;1.80;1.70;;;;;;;5.14;100.00;94897.00;5136710;27;20465;-57
2022/03/08 04:02:43;;;;;;;0.90;0.30;;;;;;;5.24;100.00;94870.06;5136607;27;20464;-58
2022/03/08 04:05:12;;;;;;;0.60;0.53;;;;;;;5.89;100.00;94898.84;5136728;27;20411;-58
2022/03/08 04:07:41;;;;;;;0.53;0.53;;;;;;;6.06;100.00;94896.91;5136673;27;20415;-58
2022/03/08 04:10:12;;;;;;;0.30;0.30;;;;;;;6.16;100.00;94897.78;5136778;27;20975;-58
2022/03/08 04:12:40;;;;;;;0.60;0.50;;;;;;;6.16;100.00;94897.78;5136610;27;20545;-58
2022/03/08 04:15:11;;;;;;;0.30;0.20;;;;;;;5.41;100.00;94882.09;5136633;27;20430;-58
2022/03/08 04:17:40;;;;;;;0.30;0.30;;;;;;;5.52;100.00;94899.53;5136418;27;20429;-58
2022/03/08 04:20:10;;;;;;;0.30;0.30;;;;;;;5.55;100.00;94893.78;5136584;27;20422;-58
2022/03/08 04:22:39;;;;;;;0.30;0.20;;;;;;;5.50;100.00;94896.34;5136394;27;20531;-58
2022/03/08 04:25:09;;;;;;;0.60;0.60;;;;;;;4.86;100.00;94905.06;5135849;27;20517;-58
2022/03/08 04:27:40;;;;;;;0.87;0.87;;;;;;;4.91;100.00;94898.03;5136522;27;20438;-58
2022/03/08 04:30:12;;;;;;;0.47;0.30;;;;;;;4.76;100.00;94908.34;5136053;27;20414;-58
2022/03/08 04:32:40;;;;;;;0.33;0.27;;;;;;;4.76;100.00;94903.09;5135697;27;20542;-58
2022/03/08 04:35:09;;;;;;;0.30;0.20;;;;;;;4.86;100.00;94912.94;5136179;27;20522;-59
2022/03/08 04:37:38;;;;;;;0.30;0.20;;;;;;;5.18;100.00;94910.44;5136176;27;20415;-57
2022/03/08 04:40:08;;;;;;;0.77;0.77;;;;;;;5.26;100.00;94907.41;5135927;27;20479;-57
2022/03/08 04:42:37;;;;;;;0.30;0.30;;;;;;;4.95;100.00;94907.03;5135756;27;20431;-57
2022/03/08 04:45:06;;;;;;;1.23;1.23;;;;;;;4.86;100.00;94895.34;5136375;27;20497;-57
2022/03/08 04:47:37;;;;;;;0.47;0.47;;;;;;;5.20;100.00;94911.00;5136340;27;20423;-56
2022/03/08 04:50:07;;;;;;;0.60;0.60;;;;;;;5.25;100.00;94911.06;5135768;27;20480;-57
2022/03/08 04:52:36;;;;;;;0.30;0.30;;;;;;;5.21;100.00;94912.59;5136169;27;20929;-56
2022/03/08 04:55:05;;;;;;;0.30;0.20;;;;;;;4.97;100.00;94917.28;5136387;27;20827;-56
2022/03/08 04:57:34;;;;;;;0.40;0.27;;;;;;;5.18;100.00;94919.13;5135096;27;20479;-57
2022/03/08 05:00:03;;;;;;;1.03;1.03;;;;;;;4.26;100.00;94916.31;5135673;27;20462;-56
2022/03/08 05:02:32;;;;;;;0.63;0.63;;;;;;;4.72;100.00;94920.38;5134668;27;20538;-57
2022/03/08 05:05:01;;;;;;;0.30;0.30;;;;;;;4.66;100.00;94925.78;5135294;27;20462;-57
2022/03/08 05:07:30;;;;;;;0.30;0.20;;;;;;;5.00;100.00;94922.84;5135150;27;20419;-57
2022/03/08 05:09:58;;;;;;;0.50;0.50;;;;;;;5.18;100.00;94926.22;5134649;27;20427;-57
2022/03/08 05:12:27;;;;;;;2.73;1.20;;;;;;;5.09;100.00;94924.00;5134999;27;20998;-57
2022/03/08 05:14:55;;;;;;;0.50;0.50;;;;;;;5.19;100.00;94922.56;5135089;27;20509;-57
2022/03/08 05:17:27;;;;;;;0.30;0.30;;;;;;;4.98;100.00;94901.28;5135232;27;20447;-57
2022/03/08 05:19:55;;;;;;;1.17;1.17;;;;;;;5.18;100.00;94920.97;5135228;27;20415;-58
2022/03/08 05:22:25;;;;;;;3.17;2.20;;;;;;;4.62;100.00;94915.00;5134708;27;21012;-58
2022/03/08 05:24:54;;;;;;;0.73;0.57;;;;;;;4.84;100.00;94925.50;5135500;27;20473;-57
2022/03/08 05:27:25;;;;;;;0.40;0.30;;;;;;;4.92;100.00;94932.97;5135023;27;20946;-58
2022/03/08 05:29:53;;;;;;;0.30;0.20;;;;;;;4.84;100.00;94931.56;5134605;27;20493;-58
2022/03/08 05:32:23;;;;;;;0.30;0.20;;;;;;;4.95;100.00;94941.19;5134339;27;20462;-58
2022/03/08 05:34:52;;;;;;;0.90;0.90;;;;;;;4.82;100.00;94938.91;5134856;27;20510;-58
2022/03/08 05:37:20;;;;;;;0.33;0.30;;;;;;;4.98;100.00;94937.28;5134516;27;20429;-58
2022/03/08 05:39:51;;;;;;;0.30;0.30;;;;;;;5.02;100.00;94935.72;5135001;27;20530;-57
2022/03/08 05:42:20;;;;;;;0.57;0.57;;;;;;;5.27;100.00;94943.13;5134413;27;20507;-57
2022/03/08 05:44:51;;;;;;;0.63;0.63;;;;;;;5.21;100.00;94947.53;5134507;27;20454;-57
2022/03/08 05:47:19;;;;;;;0.97;0.97;;;;;;;5.00;100.00;94909.72;5134666;27;20415;-57
2022/03/08 05:49:48;;;;;;;0.30;0.20;;;;;;;5.49;100.00;94951.81;5134308;27;20973;-57
2022/03/08 05:52:16;;;;;;;0.30;0.20;;;;;;;5.73;100.00;94953.91;5133670;27;20494;-58
2022/03/08 05:54:44;;;;;;;0.33;0.33;;;;;;;5.49;100.00;94949.94;5135299;27;20422;-58
2022/03/08 05:57:14;;;;;;;0.63;0.63;;;;;;;5.48;100.00;94942.31;5134354;27;20460;-58
2022/03/08 05:59:44;;;;;;;0.50;0.50;;;;;;;5.66;100.00;94950.69;5134215;27;20513;-57
2022/03/08 06:02:15;;;;;;;0.67;0.67;;;;;;;5.43;100.00;94958.03;5134571;27;20422;-58
2022/03/08 06:04:44;;;;;;;0.40;0.37;;;;;;;5.55;100.00;94948.19;5134378;27;20418;-57
2022/03/08 06:07:12;;;;;;;1.03;1.03;;;;;;;5.61;100.00;94953.25;5134422;27;20763;-59
2022/03/08 06:09:41;;;;;;;0.40;0.40;;;;;;;5.65;100.00;94950.91;5134119;27;20506;-58
2022/03/08 06:12:10;;;;;;;0.30;0.20;;;;;;;5.33;100.00;94931.66;5133883;27;20494;-58
2022/03/08 06:14:40;;;;;;;1.40;1.30;;;;;;;5.08;100.00;94959.19;5134356;27;20458;-58
2022/03/08 06:17:09;;;;;;;1.07;1.03;;;;;;;5.12;100.00;94960.31;5132992;27;20431;-58
2022/03/08 06:19:37;;;;;;;1.40;1.30;;;;;;;5.09;100.00;94952.91;5134109;27;20422;-58
2022/03/08 06:22:06;;;;;;;0.80;0.53;;;;;;;4.61;100.00;94909.97;5134077;27;20539;-58
2022/03/08 06:24:34;;;;;;;0.73;0.73;;;;;;;5.04;100.00;94965.16;5134310;27;20423;-58
2022/03/08 06:27:03;;;;;;;0.73;0.40;;;;;;;5.32;100.00;94961.56;5133376;27;20426;-58
2022/03/08 06:29:32;;;;;;;1.83;1.73;;;;;;;5.28;100.00;94971.00;5134025;27;20422;-57
2022/03/08 06:32:02;;;;;;;0.37;0.30;;;;;;;5.52;100.00;94962.59;5133507;27;20968;-57
2022/03/08 06:34:30;;;;;;;0.40;0.20;;;;;;;5.48;100.00;94968.59;5133691;27;20915;-57
2022/03/08 06:36:59;;;;;;;1.87;1.77;;;;;;;5.61;100.00;94966.41;5133905;27;20487;-57
2022/03/08 06:39:27;;;;;;;0.90;0.87;;;;;;;5.49;100.00;94972.84;5133802;27;20411;-58
2022/03/08 06:41:56;;;;;;;0.40;0.33;;;;;;;5.16;100.00;94928.28;5133962;27;20492;-58
2022/03/08 06:44:26;;;;;;;1.23;1.23;;;;;;;5.46;100.00;94965.44;5133503;27;20426;-58
2022/03/08 06:46:55;;;;;;;0.67;0.63;;;;;;;5.68;100.00;94964.38;5133875;27;20499;-58
2022/03/08 06:49:25;;;;;;;0.30;0.20;;;;;;;5.67;100.00;94964.59;5133205;27;20430;-59
2022/03/08 06:51:53;;;;;;;0.93;0.93;;;;;;;5.23;100.00;94887.66;5132915;27;20422;-58
2022/03/08 06:54:21;;;;;;;0.40;0.40;;;;;;;5.67;100.00;94970.66;5133309;27;20494;-59
2022/03/08 06:56:50;;;;;;;0.47;0.47;;;;;;;5.50;100.00;94974.41;5133322;27;20450;-59
2022/03/08 06:59:18;;;;;;;0.50;0.40;;;;;;;5.46;100.00;94965.44;5132810;27;20471;-58
2022/03/08 07:01:47;;;;;;;1.40;1.40;;;;;;;5.77;100.00;94980.47;5133462;27;20886;-58
2022/03/08 07:04:18;;;;;;;0.40;0.30;;;;;;;5.40;100.00;94979.53;5132300;27;20643;-58
2022/03/08 07:06:53;;;;;;;0.30;0.20;;;;;;;5.83;100.00;94976.88;5133721;27;20423;-58
2022/03/08 07:09:22;;;;;;;0.37;0.27;;;;;;;6.04;100.00;94978.72;5133102;27;20414;-58
2022/03/08 07:11:52;;;;;;;0.30;0.30;;;;;;;5.97;100.00;94977.31;5132971;27;20427;-58
2022/03/08 07:14:20;;;;;;;0.40;0.40;;;;;;;6.21;100.00;94974.13;5132323;27;20474;-58
2022/03/08 07:16:49;;;;;;;0.30;0.20;;;;;;;5.80;100.00;94972.09;5132903;27;20466;-58
2022/03/08 07:19:18;;;;;;;0.60;0.60;;;;;;;5.24;100.00;94904.22;5132911;27;20425;-58
2022/03/08 07:21:47;;;;;;;1.30;1.03;;;;;;;5.48;100.00;94974.66;5132638;27;20843;-57
2022/03/08 07:24:16;;;;;;;1.30;1.20;;;;;;;5.62;100.00;94975.88;5132950;27;20994;-57
2022/03/08 07:26:45;;;;;;;0.97;0.97;;;;;;;5.40;100.00;94976.91;5132877;27;20461;-57
2022/03/08 07:29:13;;;;;;;0.63;0.63;;;;;;;5.47;100.00;94973.06;5132135;27;20418;-58
2022/03/08 07:31:42;;;;;;;0.40;0.37;;;;;;;5.44;100.00;94960.41;5132792;27;20958;-58
2022/03/08 07:34:10;;;;;;;8.37;1.93;;;;;;;5.70;100.00;94977.25;5132708;27;20469;-58
2022/03/08 07:36:39;;;;;;;0.77;0.77;;;;;;;6.00;100.00;94977.59;5132605;27;20475;-58
2022/03/08 07:39:09;;;;;;;0.70;0.50;;;;;;;5.49;100.00;94964.94;5132727;27;20462;-58
2022/03/08 07:41:39;;;;;;;1.37;1.37;;;;;;;5.64;100.00;94954.59;5132575;27;20453;-58
2022/03/08 07:44:08;;;;;;;1.80;1.70;;;;;;;5.45;100.00;94964.63;5132593;28;20423;-57
2022/03/08 07:46:39;;;;;;;0.73;0.57;;;;;;;5.50;100.00;94922.63;5132691;28;20443;-57
2022/03/08 07:49:08;;;;;;;0.47;0.47;;;;;;;6.07;100.00;94951.88;5132509;28;20785;-58
2022/03/08 07:51:48;;;;;;;0.70;0.70;;;;;;;6.03;100.00;94961.31;5132554;28;20419;-58
2022/03/08 07:54:16;;;;;;;0.77;0.77;;;;;;;5.95;100.00;94960.97;5132253;28;20564;-57
2022/03/08 07:56:46;;;;;;;1.27;1.27;;;;;;;5.87;100.00;94950.91;5132337;28;20419;-57
2022/03/08 07:59:16;;;;;;;0.70;0.70;;;;;;;5.72;100.00;94959.41;5132196;27;20450;-57
2022/03/08 08:01:48;;;;;;;0.53;0.53;;;;;;;5.86;100.00;94950.13;5132720;28;20458;-57
2022/03/08 08:04:19;;;;;;;0.53;0.53;;;;;;;5.83;100.00;94955.84;5132396;28;20411;-57
2022/03/08 08:06:48;;;;;;;0.60;0.60;;;;;;;5.75;100.00;94951.03;5132631;28;20423;-58
2022/03/08 08:09:16;;;;;;;1.43;1.43;;;;;;;5.46;100.00;94950.47;5132371;28;20442;-57
2022/03/08 08:11:52;;;;;;;0.70;0.70;;;;;;;5.95;100.00;94943.34;5132225;27;20434;-57
2022/03/08 08:14:24;;;;;;;0.40;0.30;;;;;;;5.57;100.00;94949.53;5132138;28;20507;-57
2022/03/08 08:16:52;;;;;;;0.70;0.70;;;;;;;5.61;100.00;94948.00;5132407;28;20447;-56
2022/03/08 08:19:21;;;;;;;0.43;0.43;;;;;;;5.33;100.00;94950.03;5132363;28;20414;-57
2022/03/08 08:21:49;;;;;;;1.47;1.47;;;;;;;5.32;100.00;94949.22;5132478;28;20423;-57
2022/03/08 08:24:17;;;;;;;4.23;1.57;;;;;;;5.62;100.00;94941.69;5132353;28;20982;-57
2022/03/08 08:26:49;;;;;;;0.60;0.33;;;;;;;5.40;100.00;94888.38;5133424;28;20419;-58
2022/03/08 08:29:19;;;;;;;1.40;1.40;;;;;;;5.66;100.00;94940.16;5132924;28;20483;-58
2022/03/08 08:31:48;;;;;;;0.60;0.60;;;;;;;5.67;100.00;94946.19;5131969;28;20457;-57
2022/03/08 08:34:16;;;;;;;0.37;0.37;;;;;;;5.35;100.00;94934.81;5132282;28;20462;-57
2022/03/08 08:36:47;;;;;;;0.30;0.20;;;;;;;5.47;100.00;94930.22;5132992;28;20518;-57
2022/03/08 08:39:22;;;;;;;0.90;0.90;;;;;;;5.51;100.00;94940.00;5136433;27;20494;-57
2022/03/08 08:41:50;;;;;;;2.53;2.43;;;;;;;5.47;100.00;94935.47;5136513;27;20407;-57
2022/03/08 08:44:20;;;;;;;0.30;0.30;;;;;;;5.76;100.00;94931.59;5137466;27;20434;-56
2022/03/08 08:46:51;;;;;;;4.70;0.30;;;;;;;6.03;100.00;94928.97;5138881;27;20450;-57
2022/03/08 08:49:20;;;;;;;0.50;0.50;;;;;;;5.94;100.00;94930.47;5138415;27;20493;-55
2022/03/08 08:51:49;;;;;;;0.50;0.50;;;;;;;6.23;98.81;94937.03;5135791;27;20453;-56
2022/03/08 08:54:17;;;;;;;0.40;0.30;;;;;;;6.24;100.00;94926.25;5136946;27;20494;-57
2022/03/08 08:56:45;;;;;;;0.30;0.30;;;;;;;6.59;100.00;94915.19;5135346;27;20872;-57
2022/03/08 08:59:14;;;;;;;1.40;1.40;;;;;;;7.45;94.43;94919.03;5135780;27;20430;-57
2022/03/08 09:01:44;;;;;;;0.40;0.33;;;;;;;7.39;86.16;94911.34;5135094;27;20422;-56
2022/03/08 09:04:12;;;;;;;0.40;0.30;;;;;;;7.18;85.25;94918.41;5134590;27;20434;-56
2022/03/08 09:06:41;;;;;;;0.40;0.27;;;;;;;8.10;87.03;94912.28;5135100;27;20466;-56
2022/03/08 09:09:10;;;;;;;1.67;1.57;;;;;;;8.34;72.48;94918.66;5135023;27;20784;-56
2022/03/08 09:11:39;;;;;;;0.60;0.60;;;;;;;8.10;69.91;94838.38;5135114;27;20491;-56
2022/03/08 09:14:09;;;;;;;0.50;0.30;;;;;;;9.64;71.99;94918.59;5135382;27;21011;-55
2022/03/08 09:16:37;;;;;;;0.40;0.30;;;;;;;9.41;63.80;94912.09;5135045;27;20542;-59
2022/03/08 09:19:07;;;;;;;0.87;0.87;;;;;;;9.14;69.17;94909.00;5134971;27;20457;-53
2022/03/08 09:21:35;;;;;;;0.40;0.40;;;;;;;9.39;69.37;94914.19;5134853;27;20457;-54
2022/03/08 09:24:04;;;;;;;0.77;0.70;;;;;;;9.10;65.15;94910.63;5134632;27;20862;-62
2022/03/08 09:26:33;;;;;;;0.57;0.57;;;;;;;9.50;62.26;94913.91;5135219;27;20896;-54
2022/03/08 09:29:01;;;;;;;0.77;0.70;;;;;;;10.05;57.62;94910.13;5135247;27;20693;-54
2022/03/08 09:31:33;;;;;;;0.60;0.60;;;;;;;10.08;55.52;94911.44;5134473;27;20458;-54
2022/03/08 09:34:01;;;;;;;0.50;0.50;;;;;;;10.34;57.21;94910.22;5134775;27;20542;-54
2022/03/08 09:36:33;;;;;;;2.83;0.97;;;;;;;10.25;57.88;94895.97;5134731;27;20479;-54
2022/03/08 09:39:02;;;;;;;1.57;1.47;;;;;;;10.50;54.68;94903.72;5134829;27;20529;-54
2022/03/08 09:41:30;;;;;;;1.60;1.60;;;;;;;9.92;53.25;94910.75;5134808;27;20479;-54
2022/03/08 09:44:00;;;;;;;0.30;0.20;;;;;;;9.96;54.85;94914.44;5134066;27;20521;-54
2022/03/08 09:46:29;;;;;;;0.30;0.20;;;;;;;10.01;54.26;94903.03;5134721;27;20427;-51
2022/03/08 09:49:01;;;;;;;3.03;0.87;;;;;;;10.72;52.11;94877.56;5134447;27;20537;-52
2022/03/08 09:51:30;;;;;;;0.43;0.43;;;;;;;10.92;51.39;94912.88;5133618;27;20513;-53
2022/03/08 09:54:00;;;;;;;0.30;0.30;;;;;;;9.81;49.17;94917.19;5134241;27;20491;-52
2022/03/08 09:56:28;;;;;;;0.50;0.40;;;;;;;10.56;50.20;94912.41;5134250;27;20497;-52
2022/03/08 09:58:59;;;;;;;0.67;0.67;;;;;;;11.37;48.60;94913.19;5134171;27;20521;-53
2022/03/08 10:01:28;;;;;;;0.87;0.50;;;;;;;10.98;47.99;94909.88;5134141;27;20450;-52
2022/03/08 10:04:02;;;;;;;0.50;0.50;;;;;;;10.76;45.57;94909.59;5133862;27;20441;-52
2022/03/08 10:06:51;;;;;;;0.60;0.60;;;;;;;10.65;45.68;94914.19;5133969;27;21015;-53
2022/03/08 10:09:22;;;;;;;0.60;0.60;;;;;;;10.78;46.80;94918.03;5133653;27;20506;-52
2022/03/08 10:11:52;;;;;;;0.87;0.87;;;;;;;11.44;49.50;94918.13;5133399;27;20470;-56
2022/03/08 10:14:37;;;;;;;0.97;0.30;;;;;;;10.96;43.08;94916.53;5133459;27;20519;-56
2022/03/08 10:17:06;;;;;;;2.57;0.50;;;;;;;9.81;44.82;94917.19;5133857;27;20452;-56
2022/03/08 10:19:44;;;;;;;0.40;0.40;;;;;;;10.85;47.20;94907.91;5133829;27;20426;-55
2022/03/08 10:22:25;;;;;;;0.50;0.50;;;;;;;10.31;46.08;94918.72;5133565;27;20564;-55
2022/03/08 10:25:13;;;;;;;0.60;0.57;;;;;;;11.15;44.38;94912.91;5133696;27;20501;-55
2022/03/08 10:27:45;;;;;;;0.57;0.50;;;;;;;10.64;43.08;94906.53;5133459;27;20422;-55
2022/03/08 10:30:14;;;;;;;0.40;0.37;;;;;;;9.78;44.29;94911.63;5132611;27;20418;-55
2022/03/08 10:33:03;;;;;;;0.40;0.40;;;;;;;10.97;44.47;94916.28;5133555;27;20487;-54
2022/03/08 10:35:37;;;;;;;0.40;0.40;;;;;;;10.57;43.15;94916.66;5133869;27;20549;-54
2022/03/08 10:38:08;;;;;;;0.97;0.97;;;;;;;9.99;44.45;94913.88;5133511;27;20415;-55
2022/03/08 10:40:38;;;;;;;0.30;0.20;;;;;;;10.46;44.64;94917.81;5133634;27;20807;-54
2022/03/08 10:43:08;;;;;;;0.40;0.30;;;;;;;10.90;43.83;94917.69;5133372;27;20915;-55
2022/03/08 10:45:40;;;;;;;0.30;0.30;;;;;;;10.88;46.57;94920.59;5133750;27;20423;-55
2022/03/08 10:48:10;;;;;;;0.50;0.50;;;;;;;10.48;47.13;94919.09;5133622;27;20429;-54
2022/03/08 10:50:38;;;;;;;0.30;0.30;;;;;;;9.48;48.62;94912.59;5133373;27;20458;-55
2022/03/08 10:53:08;;;;;;;0.47;0.40;;;;;;;9.92;49.94;94917.88;5133569;27;20426;-55
2022/03/08 10:55:40;;;;;;;0.40;0.30;;;;;;;9.18;49.41;94923.28;5133100;27;20478;-55
2022/03/08 10:58:12;;;;;;;0.50;0.50;;;;;;;9.08;53.63;94923.31;5133211;27;20426;-55
2022/03/08 11:00:42;;;;;;;1.13;0.73;;;;;;;8.66;56.55;94928.94;5133122;27;20427;-55
2022/03/08 11:03:12;;;;;;;1.40;1.33;;;;;;;8.16;62.12;94908.59;5132821;27;20425;-55
2022/03/08 11:05:43;;;;;;;0.40;0.37;;;;;;;7.94;62.61;94923.91;5133133;27;20448;-55
2022/03/08 11:08:12;;;;;;;0.47;0.47;;;;;;;8.61;63.22;94921.00;5133069;27;20454;-55
2022/03/08 11:10:43;;;;;;;0.40;0.33;;;;;;;8.46;62.48;94829.41;5133357;27;20467;-55
2022/03/08 11:13:13;;;;;;;4.27;2.70;;;;;;;8.40;68.67;94912.31;5133060;27;20475;-53
2022/03/08 11:15:44;;;;;;;0.90;0.90;;;;;;;8.15;73.59;94917.56;5132558;27;20467;-53
2022/03/08 11:18:15;;;;;;;0.40;0.30;;;;;;;8.06;76.91;94901.47;5133020;27;20414;-54
2022/03/08 11:20:46;;;;;;;1.73;0.87;;;;;;;8.75;68.83;94904.34;5133094;27;20879;-53
2022/03/08 11:23:18;;;;;;;2.57;0.60;;;;;;;9.07;67.36;94900.56;5132152;27;20466;-53
2022/03/08 11:25:48;;;;;;;0.60;0.50;;;;;;;8.97;66.89;94909.34;5132697;27;20966;-54
2022/03/08 11:28:19;;;;;;;0.30;0.20;;;;;;;8.17;74.25;94900.41;5132631;27;20433;-54
2022/03/08 11:30:50;;;;;;;0.37;0.30;;;;;;;8.82;71.57;94910.16;5132074;27;20945;-54
2022/03/08 11:33:30;;;;;;;0.40;0.30;;;;;;;8.72;66.47;94910.19;5132556;27;20452;-54
2022/03/08 11:36:03;;;;;;;0.40;0.40;;;;;;;8.91;66.22;94899.81;5132847;27;20548;-54
2022/03/08 11:38:34;;;;;;;0.60;0.60;;;;;;;8.58;66.67;94911.78;5132940;27;20418;-54
2022/03/08 11:41:04;;;;;;;0.40;0.40;;;;;;;8.39;70.45;94915.22;5132589;27;20497;-55
2022/03/08 11:43:41;;;;;;;0.30;0.20;;;;;;;8.93;70.34;94911.72;5131988;27;20465;-56
2022/03/08 11:46:15;;;;;;;0.70;0.40;;;;;;;8.14;73.26;94910.72;5132192;28;20506;-55